sensor_id;sensor_type;location;lat;lon;timestamp;temperature;humidity
21625;DHT22;10974;51.034;3.744;2022-09-29T03:15:51;9.70;99.90
21625;DHT22;10974;51.034;3.744;2022-09-29T03:18:17;9.60;99.90
21625;DHT22;10974;51.034;3.744;2022-09-29T03:20:42;9.60;99.90
21625;DHT22;10974;51.034;3.744;2022-09-29T03:23:08;9.50;99.90
21625;DHT22;10974;51.034;3.744;2022-09-29T03:25:34;9.40;99.90
21625;DHT22;10974;51.034;3.744;2022-09-29T03:27:59;9.40;99.90
21625;DHT22;10974;51.034;3.744;2022-09-29T03:30:25;9.40;99.90
21625;DHT22;10974;51.034;3.744;2022-09-29T03:32:51;9.40;99.90
21625;DHT22;10974;51.034;3.744;2022-09-29T03:35:17;9.40;99.90
21625;DHT22;10974;51.034;3.744;2022-09-29T03:37:42;9.40;99.90
21625;DHT22;10974;51.034;3.744;2022-09-29T03:40:09;9.40;99.90
21625;DHT22;10974;51.034;3.744;2022-09-29T03:42:34;9.30;99.90
21625;DHT22;10974;51.034;3.744;2022-09-29T03:45:00;9.30;99.90
21625;DHT22;10974;51.034;3.744;2022-09-29T03:47:25;9.10;99.90
21625;DHT22;10974;51.034;3.744;2022-09-29T03:49:51;9.30;99.90
21625;DHT22;10974;51.034;3.744;2022-09-29T03:52:17;9.40;99.90
21625;DHT22;10974;51.034;3.744;2022-09-29T03:54:43;9.20;99.90
21625;DHT22;10974;51.034;3.744;2022-09-29T03:57:09;9.40;99.90
21625;DHT22;10974;51.034;3.744;2022-09-29T03:59:34;9.40;99.90
21625;DHT22;10974;51.034;3.744;2022-09-29T04:02:00;9.40;99.90
21625;DHT22;10974;51.034;3.744;2022-09-29T04:04:25;9.50;99.90
21625;DHT22;10974;51.034;3.744;2022-09-29T04:06:51;9.40;99.90
21625;DHT22;10974;51.034;3.744;2022-09-29T04:09:17;9.20;99.90
21625;DHT22;10974;51.034;3.744;2022-09-29T04:11:42;9.50;99.90
21625;DHT22;10974;51.034;3.744;2022-09-29T04:14:08;9.60;99.90
21625;DHT22;10974;51.034;3.744;2022-09-29T04:16:33;9.60;99.90
21625;DHT22;10974;51.034;3.744;2022-09-29T04:18:59;9.70;99.90
21625;DHT22;10974;51.034;3.744;2022-09-29T04:21:25;9.70;99.90
21625;DHT22;10974;51.034;3.744;2022-09-29T04:23:50;9.70;99.90
21625;DHT22;10974;51.034;3.744;2022-09-29T04:26:17;9.70;99.90
21625;DHT22;10974;51.034;3.744;2022-09-29T04:28:44;9.60;99.90
21625;DHT22;10974;51.034;3.744;2022-09-29T04:31:10;9.70;99.90
21625;DHT22;10974;51.034;3.744;2022-09-29T04:33:36;9.70;99.90
21625;DHT22;10974;51.034;3.744;2022-09-29T04:36:04;9.60;99.90
21625;DHT22;10974;51.034;3.744;2022-09-29T04:38:30;9.50;99.90
21625;DHT22;10974;51.034;3.744;2022-09-29T04:40:56;9.60;99.90
21625;DHT22;10974;51.034;3.744;2022-09-29T04:43:22;9.60;99.90
21625;DHT22;10974;51.034;3.744;2022-09-29T04:45:47;9.60;99.90
21625;DHT22;10974;51.034;3.744;2022-09-29T04:48:13;9.70;99.90
21625;DHT22;10974;51.034;3.744;2022-09-29T04:50:39;9.60;99.90
21625;DHT22;10974;51.034;3.744;2022-09-29T04:53:06;9.60;99.90
21625;DHT22;10974;51.034;3.744;2022-09-29T04:55:31;9.60;99.90
21625;DHT22;10974;51.034;3.744;2022-09-29T04:57:57;9.60;99.90
21625;DHT22;10974;51.034;3.744;2022-09-29T05:00:22;9.60;99.90
21625;DHT22;10974;51.034;3.744;2022-09-29T05:02:48;9.70;99.90
21625;DHT22;10974;51.034;3.744;2022-09-29T05:05:14;9.60;99.90
21625;DHT22;10974;51.034;3.744;2022-09-29T05:07:40;9.70;99.90
21625;DHT22;10974;51.034;3.744;2022-09-29T05:10:07;9.60;99.90
21625;DHT22;10974;51.034;3.744;2022-09-29T05:12:33;9.60;99.90
21625;DHT22;10974;51.034;3.744;2022-09-29T05:14:58;9.50;99.90
21625;DHT22;10974;51.034;3.744;2022-09-29T05:17:24;9.50;99.90
21625;DHT22;10974;51.034;3.744;2022-09-29T05:19:50;9.50;99.90
21625;DHT22;10974;51.034;3.744;2022-09-29T05:22:15;9.60;99.90
21625;DHT22;10974;51.034;3.744;2022-09-29T05:24:41;9.60;99.90
21625;DHT22;10974;51.034;3.744;2022-09-29T05:27:07;9.50;99.90
21625;DHT22;10974;51.034;3.744;2022-09-29T05:29:32;9.50;99.90
21625;DHT22;10974;51.034;3.744;2022-09-29T05:31:58;9.50;99.90
21625;DHT22;10974;51.034;3.744;2022-09-29T05:34:23;9.40;99.90
21625;DHT22;10974;51.034;3.744;2022-09-29T05:36:49;9.50;99.90
21625;DHT22;10974;51.034;3.744;2022-09-29T05:39:15;9.50;99.90
21625;DHT22;10974;51.034;3.744;2022-09-29T05:41:42;9.30;99.90
21625;DHT22;10974;51.034;3.744;2022-09-29T05:44:07;9.50;99.90
21625;DHT22;10974;51.034;3.744;2022-09-29T05:46:33;9.50;99.90
21625;DHT22;10974;51.034;3.744;2022-09-29T05:48:59;9.50;99.90
21625;DHT22;10974;51.034;3.744;2022-09-29T05:51:25;9.50;99.90
21625;DHT22;10974;51.034;3.744;2022-09-29T05:53:51;9.40;99.90
21625;DHT22;10974;51.034;3.744;2022-09-29T05:56:25;9.40;99.90
21625;DHT22;10974;51.034;3.744;2022-09-29T05:58:52;9.30;99.90
21625;DHT22;10974;51.034;3.744;2022-09-29T06:01:25;10.40;99.90
21625;DHT22;10974;51.034;3.744;2022-09-29T06:03:53;11.50;99.90
21625;DHT22;10974;51.034;3.744;2022-09-29T06:06:21;12.10;99.90
21625;DHT22;10974;51.034;3.744;2022-09-29T06:08:48;12.60;99.90
21625;DHT22;10974;51.034;3.744;2022-09-29T06:11:19;12.90;99.90
21625;DHT22;10974;51.034;3.744;2022-09-29T06:13:47;13.10;99.90
21625;DHT22;10974;51.034;3.744;2022-09-29T06:16:15;13.60;99.90
21625;DHT22;10974;51.034;3.744;2022-09-29T06:18:41;14.00;99.90
21625;DHT22;10974;51.034;3.744;2022-09-29T06:21:09;14.40;99.90
21625;DHT22;10974;51.034;3.744;2022-09-29T06:23:35;14.70;99.90
21625;DHT22;10974;51.034;3.744;2022-09-29T06:26:03;14.90;99.90
21625;DHT22;10974;51.034;3.744;2022-09-29T06:28:29;15.00;99.90
21625;DHT22;10974;51.034;3.744;2022-09-29T06:31:13;15.20;99.90
21625;DHT22;10974;51.034;3.744;2022-09-29T06:33:39;15.30;99.90
21625;DHT22;10974;51.034;3.744;2022-09-29T06:36:18;15.30;99.90
21625;DHT22;10974;51.034;3.744;2022-09-29T06:39:08;15.40;99.90
21625;DHT22;10974;51.034;3.744;2022-09-29T06:41:34;15.50;99.90
21625;DHT22;10974;51.034;3.744;2022-09-29T06:44:00;15.50;99.90
21625;DHT22;10974;51.034;3.744;2022-09-29T06:46:26;15.40;99.90
21625;DHT22;10974;51.034;3.744;2022-09-29T06:48:53;15.50;99.90
21625;DHT22;10974;51.034;3.744;2022-09-29T06:51:19;15.70;99.90
21625;DHT22;10974;51.034;3.744;2022-09-29T06:53:47;15.90;99.90
21625;DHT22;10974;51.034;3.744;2022-09-29T06:56:13;16.10;99.90
21625;DHT22;10974;51.034;3.744;2022-09-29T06:58:39;16.30;99.90
21625;DHT22;10974;51.034;3.744;2022-09-29T07:01:05;16.20;1.00
21625;DHT22;10974;51.034;3.744;2022-09-29T07:03:32;16.30;99.90
21625;DHT22;10974;51.034;3.744;2022-09-29T07:06:01;16.40;1.00
21625;DHT22;10974;51.034;3.744;2022-09-29T07:08:27;16.30;1.00
21625;DHT22;10974;51.034;3.744;2022-09-29T07:10:53;16.40;18.40
21625;DHT22;10974;51.034;3.744;2022-09-29T07:13:19;16.50;1.00
21625;DHT22;10974;51.034;3.744;2022-09-29T07:15:45;16.40;99.90
21625;DHT22;10974;51.034;3.744;2022-09-29T07:18:13;16.50;32.00
21625;DHT22;10974;51.034;3.744;2022-09-29T07:20:39;16.50;99.90
21625;DHT22;10974;51.034;3.744;2022-09-29T07:23:05;16.50;1.00
21625;DHT22;10974;51.034;3.744;2022-09-29T07:25:32;16.50;99.90
21625;DHT22;10974;51.034;3.744;2022-09-29T07:27:59;16.60;1.00
21625;DHT22;10974;51.034;3.744;2022-09-29T07:30:25;16.70;1.00
21625;DHT22;10974;51.034;3.744;2022-09-29T07:32:52;16.70;1.00
21625;DHT22;10974;51.034;3.744;2022-09-29T07:35:20;16.70;99.90
21625;DHT22;10974;51.034;3.744;2022-09-29T07:37:52;16.70;99.90
21625;DHT22;10974;51.034;3.744;2022-09-29T07:40:22;16.80;1.00
21625;DHT22;10974;51.034;3.744;2022-09-29T07:42:48;16.70;99.90
21625;DHT22;10974;51.034;3.744;2022-09-29T07:45:15;16.70;99.90
21625;DHT22;10974;51.034;3.744;2022-09-29T07:47:41;16.70;99.90
21625;DHT22;10974;51.034;3.744;2022-09-29T07:50:07;16.80;99.90
21625;DHT22;10974;51.034;3.744;2022-09-29T07:52:33;16.80;99.90
21625;DHT22;10974;51.034;3.744;2022-09-29T07:54:58;16.70;22.40
21625;DHT22;10974;51.034;3.744;2022-09-29T07:57:24;16.90;99.90
21625;DHT22;10974;51.034;3.744;2022-09-29T07:59:49;16.70;1.00
21625;DHT22;10974;51.034;3.744;2022-09-29T08:02:15;16.70;1.00
21625;DHT22;10974;51.034;3.744;2022-09-29T08:04:42;16.70;1.00
21625;DHT22;10974;51.034;3.744;2022-09-29T08:07:08;16.80;84.60
21625;DHT22;10974;51.034;3.744;2022-09-29T08:09:34;17.10;99.90
21625;DHT22;10974;51.034;3.744;2022-09-29T08:12:00;17.10;4.40
21625;DHT22;10974;51.034;3.744;2022-09-29T08:14:26;17.10;99.90
21625;DHT22;10974;51.034;3.744;2022-09-29T08:16:51;17.10;99.90
21625;DHT22;10974;51.034;3.744;2022-09-29T08:19:17;16.90;1.00
21625;DHT22;10974;51.034;3.744;2022-09-29T08:21:42;17.00;1.00
21625;DHT22;10974;51.034;3.744;2022-09-29T08:24:08;16.60;99.90
21625;DHT22;10974;51.034;3.744;2022-09-29T08:26:35;16.80;1.00
21625;DHT22;10974;51.034;3.744;2022-09-29T08:29:02;17.10;1.00
21625;DHT22;10974;51.034;3.744;2022-09-29T08:31:28;17.00;99.90
21625;DHT22;10974;51.034;3.744;2022-09-29T08:33:55;17.00;1.00
21625;DHT22;10974;51.034;3.744;2022-09-29T08:36:22;16.60;99.90
21625;DHT22;10974;51.034;3.744;2022-09-29T08:38:50;16.60;99.90
21625;DHT22;10974;51.034;3.744;2022-09-29T08:47:20;16.80;71.60
21625;DHT22;10974;51.034;3.744;2022-09-29T08:49:56;17.20;99.90
21625;DHT22;10974;51.034;3.744;2022-09-29T08:52:36;17.60;1.00
21625;DHT22;10974;51.034;3.744;2022-09-29T08:55:24;17.80;99.90
21625;DHT22;10974;51.034;3.744;2022-09-29T08:57:58;17.80;1.00
21625;DHT22;10974;51.034;3.744;2022-09-29T09:00:34;18.20;99.90
21625;DHT22;10974;51.034;3.744;2022-09-29T09:06:24;18.50;1.00
21625;DHT22;10974;51.034;3.744;2022-09-29T09:25:06;19.10;99.90
21625;DHT22;10974;51.034;3.744;2022-09-29T09:27:45;19.30;1.00
21625;DHT22;10974;51.034;3.744;2022-09-29T09:30:15;19.40;1.00
21625;DHT22;10974;51.034;3.744;2022-09-29T09:32:51;19.50;1.00
21625;DHT22;10974;51.034;3.744;2022-09-29T09:35:31;19.50;1.00
21625;DHT22;10974;51.034;3.744;2022-09-29T09:38:03;19.50;1.00
21625;DHT22;10974;51.034;3.744;2022-09-29T09:40:40;19.40;1.00
21625;DHT22;10974;51.034;3.744;2022-09-29T09:43:13;19.50;99.90
21625;DHT22;10974;51.034;3.744;2022-09-29T09:45:56;19.50;99.90
21625;DHT22;10974;51.034;3.744;2022-09-29T09:48:57;19.50;99.90
21625;DHT22;10974;51.034;3.744;2022-09-29T09:51:41;19.70;99.90
21625;DHT22;10974;51.034;3.744;2022-09-29T09:54:37;19.60;1.00
21625;DHT22;10974;51.034;3.744;2022-09-29T10:02:19;17.70;99.90
21625;DHT22;10974;51.034;3.744;2022-09-29T10:04:48;17.40;1.00
21625;DHT22;10974;51.034;3.744;2022-09-29T10:07:16;17.10;99.90
21625;DHT22;10974;51.034;3.744;2022-09-29T10:09:43;17.20;1.00
21625;DHT22;10974;51.034;3.744;2022-09-29T10:12:14;17.40;99.90
21625;DHT22;10974;51.034;3.744;2022-09-29T10:15:11;17.40;1.00
21625;DHT22;10974;51.034;3.744;2022-09-29T10:17:36;17.30;99.90
21625;DHT22;10974;51.034;3.744;2022-09-29T10:20:06;17.40;99.90
21625;DHT22;10974;51.034;3.744;2022-09-29T10:22:32;16.70;1.00
21625;DHT22;10974;51.034;3.744;2022-09-29T10:25:18;17.00;1.00
21625;DHT22;10974;51.034;3.744;2022-09-29T10:27:53;17.00;1.00
21625;DHT22;10974;51.034;3.744;2022-09-29T10:30:32;16.50;1.00
21625;DHT22;10974;51.034;3.744;2022-09-29T10:33:01;16.30;99.90
21625;DHT22;10974;51.034;3.744;2022-09-29T10:35:37;16.50;1.00
21625;DHT22;10974;51.034;3.744;2022-09-29T10:38:19;16.50;1.00
21625;DHT22;10974;51.034;3.744;2022-09-29T10:41:01;16.80;99.90
21625;DHT22;10974;51.034;3.744;2022-09-29T10:43:37;17.20;1.00
21625;DHT22;10974;51.034;3.744;2022-09-29T10:46:05;16.80;99.90
21625;DHT22;10974;51.034;3.744;2022-09-29T10:48:31;17.20;1.00
21625;DHT22;10974;51.034;3.744;2022-09-29T10:51:02;17.40;99.90
21625;DHT22;10974;51.034;3.744;2022-09-29T10:56:00;16.50;99.90
21625;DHT22;10974;51.034;3.744;2022-09-29T11:01:09;16.20;1.00
21625;DHT22;10974;51.034;3.744;2022-09-29T11:03:39;16.10;99.90
21625;DHT22;10974;51.034;3.744;2022-09-29T11:06:09;15.90;99.90
21625;DHT22;10974;51.034;3.744;2022-09-29T11:11:37;15.70;1.00
21625;DHT22;10974;51.034;3.744;2022-09-29T11:14:03;16.20;1.00
21625;DHT22;10974;51.034;3.744;2022-09-29T11:16:35;16.40;99.90
21625;DHT22;10974;51.034;3.744;2022-09-29T11:19:10;16.70;1.00
21625;DHT22;10974;51.034;3.744;2022-09-29T11:27:39;17.90;1.00
21625;DHT22;10974;51.034;3.744;2022-09-29T11:30:14;18.20;1.00
21625;DHT22;10974;51.034;3.744;2022-09-29T11:38:26;17.20;99.90
21625;DHT22;10974;51.034;3.744;2022-09-29T11:46:26;16.30;1.00
21625;DHT22;10974;51.034;3.744;2022-09-29T12:00:12;15.00;99.90
21625;DHT22;10974;51.034;3.744;2022-09-29T12:05:23;14.80;99.90
21625;DHT22;10974;51.034;3.744;2022-09-29T12:15:57;14.60;99.90
21625;DHT22;10974;51.034;3.744;2022-09-29T12:18:32;14.70;1.00
21625;DHT22;10974;51.034;3.744;2022-09-29T12:21:00;14.60;1.00
21625;DHT22;10974;51.034;3.744;2022-09-29T12:23:28;14.90;20.60
21625;DHT22;10974;51.034;3.744;2022-09-29T12:26:03;15.00;1.00
21625;DHT22;10974;51.034;3.744;2022-09-29T12:28:37;15.20;1.00
21625;DHT22;10974;51.034;3.744;2022-09-29T12:31:30;15.20;1.00
21625;DHT22;10974;51.034;3.744;2022-09-29T12:34:09;14.90;1.00
21625;DHT22;10974;51.034;3.744;2022-09-29T12:44:51;15.20;1.00
21625;DHT22;10974;51.034;3.744;2022-09-29T12:47:24;15.40;1.00
21625;DHT22;10974;51.034;3.744;2022-09-29T12:50:13;15.80;99.90
21625;DHT22;10974;51.034;3.744;2022-09-29T12:58:42;16.50;1.00
21625;DHT22;10974;51.034;3.744;2022-09-29T13:01:26;16.80;1.00
21625;DHT22;10974;51.034;3.744;2022-09-29T13:25:49;17.40;1.00
21625;DHT22;10974;51.034;3.744;2022-09-29T13:28:43;18.00;1.00
21625;DHT22;10974;51.034;3.744;2022-09-29T13:31:14;18.10;1.00
21625;DHT22;10974;51.034;3.744;2022-09-29T13:33:46;17.90;1.00
21625;DHT22;10974;51.034;3.744;2022-09-29T13:36:28;18.10;1.00
21625;DHT22;10974;51.034;3.744;2022-09-29T13:38:57;18.10;99.90
21625;DHT22;10974;51.034;3.744;2022-09-29T13:46:43;17.40;1.00
21625;DHT22;10974;51.034;3.744;2022-09-29T13:57:18;16.50;99.40
21625;DHT22;10974;51.034;3.744;2022-09-29T14:02:46;16.30;99.90
21625;DHT22;10974;51.034;3.744;2022-09-29T14:15:40;14.70;99.90
21625;DHT22;10974;51.034;3.744;2022-09-29T14:21:04;14.30;99.90
21625;DHT22;10974;51.034;3.744;2022-09-29T14:29:26;14.10;99.90
21625;DHT22;10974;51.034;3.744;2022-09-29T14:31:55;14.00;99.90
21625;DHT22;10974;51.034;3.744;2022-09-29T14:34:24;14.10;99.90
21625;DHT22;10974;51.034;3.744;2022-09-29T14:36:53;14.10;99.90
21625;DHT22;10974;51.034;3.744;2022-09-29T14:39:21;13.90;99.90
21625;DHT22;10974;51.034;3.744;2022-09-29T14:41:48;13.90;99.90
21625;DHT22;10974;51.034;3.744;2022-09-29T14:44:35;14.00;99.90
21625;DHT22;10974;51.034;3.744;2022-09-29T14:47:35;13.80;99.90
21625;DHT22;10974;51.034;3.744;2022-09-29T14:50:31;13.90;99.90
21625;DHT22;10974;51.034;3.744;2022-09-29T15:01:30;13.80;99.90
21625;DHT22;10974;51.034;3.744;2022-09-29T15:04:18;13.80;99.90
21625;DHT22;10974;51.034;3.744;2022-09-29T15:06:47;13.60;99.90
21625;DHT22;10974;51.034;3.744;2022-09-29T15:09:19;13.70;99.90
21625;DHT22;10974;51.034;3.744;2022-09-29T15:11:51;13.70;99.90
21625;DHT22;10974;51.034;3.744;2022-09-29T15:22:59;13.80;99.90
21625;DHT22;10974;51.034;3.744;2022-09-29T15:25:38;13.90;99.90
21625;DHT22;10974;51.034;3.744;2022-09-29T15:30:53;14.00;99.90
21625;DHT22;10974;51.034;3.744;2022-09-29T15:33:22;13.90;99.90
21625;DHT22;10974;51.034;3.744;2022-09-29T15:35:56;13.90;99.90
21625;DHT22;10974;51.034;3.744;2022-09-29T15:40:59;14.00;99.90
21625;DHT22;10974;51.034;3.744;2022-09-29T15:43:29;14.00;99.90
21625;DHT22;10974;51.034;3.744;2022-09-29T15:46:01;14.10;99.90
21625;DHT22;10974;51.034;3.744;2022-09-29T15:48:36;14.20;99.90
21625;DHT22;10974;51.034;3.744;2022-09-29T15:51:02;14.40;99.90
21625;DHT22;10974;51.034;3.744;2022-09-29T15:53:29;14.30;99.90
21625;DHT22;10974;51.034;3.744;2022-09-29T15:55:55;14.50;99.90
21625;DHT22;10974;51.034;3.744;2022-09-29T16:00:59;15.40;99.90
21625;DHT22;10974;51.034;3.744;2022-09-29T16:06:28;17.20;99.90
21625;DHT22;10974;51.034;3.744;2022-09-29T16:09:00;17.80;99.90
21625;DHT22;10974;51.034;3.744;2022-09-29T16:11:36;18.20;99.90
21625;DHT22;10974;51.034;3.744;2022-09-29T16:14:22;18.50;99.90
21625;DHT22;10974;51.034;3.744;2022-09-29T16:16:50;18.70;99.90
21625;DHT22;10974;51.034;3.744;2022-09-29T16:21:50;19.10;99.90
21625;DHT22;10974;51.034;3.744;2022-09-29T16:24:18;19.20;1.00
21625;DHT22;10974;51.034;3.744;2022-09-29T16:26:52;19.30;99.90
21625;DHT22;10974;51.034;3.744;2022-09-29T16:31:46;19.50;99.90
21625;DHT22;10974;51.034;3.744;2022-09-29T16:36:52;19.40;99.90
21625;DHT22;10974;51.034;3.744;2022-09-29T16:39:21;19.40;99.90
21625;DHT22;10974;51.034;3.744;2022-09-29T16:41:49;19.50;1.00
21625;DHT22;10974;51.034;3.744;2022-09-29T16:44:28;19.50;1.00
21625;DHT22;10974;51.034;3.744;2022-09-29T16:47:24;19.40;1.00
21625;DHT22;10974;51.034;3.744;2022-09-29T16:49:59;19.60;99.90
21625;DHT22;10974;51.034;3.744;2022-09-29T16:52:42;19.70;99.90
21625;DHT22;10974;51.034;3.744;2022-09-29T17:00:16;19.50;1.00
21625;DHT22;10974;51.034;3.744;2022-09-29T17:02:43;19.30;99.90
21625;DHT22;10974;51.034;3.744;2022-09-29T17:05:08;19.30;99.90
21625;DHT22;10974;51.034;3.744;2022-09-29T17:07:39;19.30;99.90
21625;DHT22;10974;51.034;3.744;2022-09-29T17:10:11;19.30;1.00
21625;DHT22;10974;51.034;3.744;2022-09-29T17:12:39;19.30;99.90
21625;DHT22;10974;51.034;3.744;2022-09-29T17:15:05;19.30;1.00
21625;DHT22;10974;51.034;3.744;2022-09-29T17:17:31;19.30;99.90
21625;DHT22;10974;51.034;3.744;2022-09-29T17:19:58;19.30;1.00
21625;DHT22;10974;51.034;3.744;2022-09-29T17:22:32;19.10;99.90
21625;DHT22;10974;51.034;3.744;2022-09-29T17:24:59;19.00;99.90
21625;DHT22;10974;51.034;3.744;2022-09-29T17:27:26;19.00;99.90
21625;DHT22;10974;51.034;3.744;2022-09-29T17:30:13;19.10;99.90
21625;DHT22;10974;51.034;3.744;2022-09-29T17:32:42;19.00;99.90
21625;DHT22;10974;51.034;3.744;2022-09-29T17:35:12;18.90;99.90
21625;DHT22;10974;51.034;3.744;2022-09-29T17:37:42;18.90;1.00
21625;DHT22;10974;51.034;3.744;2022-09-29T17:42:49;18.90;99.90
21625;DHT22;10974;51.034;3.744;2022-09-29T17:45:16;18.70;99.90
21625;DHT22;10974;51.034;3.744;2022-09-29T17:47:44;18.80;1.00
21625;DHT22;10974;51.034;3.744;2022-09-29T17:50:35;18.80;1.00
21625;DHT22;10974;51.034;3.744;2022-09-29T17:53:02;18.80;1.00
21625;DHT22;10974;51.034;3.744;2022-09-29T17:55:29;18.80;6.10
21625;DHT22;10974;51.034;3.744;2022-09-29T17:57:55;18.80;1.00
21625;DHT22;10974;51.034;3.744;2022-09-29T18:00:27;18.70;1.00
21625;DHT22;10974;51.034;3.744;2022-09-29T18:03:19;18.80;99.90
21625;DHT22;10974;51.034;3.744;2022-09-29T18:05:54;18.80;11.30
21625;DHT22;10974;51.034;3.744;2022-09-29T18:08:22;18.80;99.90
21625;DHT22;10974;51.034;3.744;2022-09-29T18:10:59;18.70;99.90
21625;DHT22;10974;51.034;3.744;2022-09-29T18:13:26;18.70;1.00
21625;DHT22;10974;51.034;3.744;2022-09-29T18:15:53;18.60;1.00
21625;DHT22;10974;51.034;3.744;2022-09-29T18:18:21;18.60;1.00
21625;DHT22;10974;51.034;3.744;2022-09-29T18:20:47;18.50;1.00
21625;DHT22;10974;51.034;3.744;2022-09-29T18:23:15;18.50;1.00
21625;DHT22;10974;51.034;3.744;2022-09-29T18:25:42;18.50;1.00
21625;DHT22;10974;51.034;3.744;2022-09-29T18:28:13;18.50;99.90
21625;DHT22;10974;51.034;3.744;2022-09-29T18:30:43;18.50;99.90
21625;DHT22;10974;51.034;3.744;2022-09-29T18:33:12;18.50;99.90
21625;DHT22;10974;51.034;3.744;2022-09-29T18:35:40;18.50;99.90
21625;DHT22;10974;51.034;3.744;2022-09-29T18:38:06;18.50;99.90
21625;DHT22;10974;51.034;3.744;2022-09-29T18:40:32;18.50;99.90
21625;DHT22;10974;51.034;3.744;2022-09-29T18:42:58;18.50;99.90
21625;DHT22;10974;51.034;3.744;2022-09-29T18:45:29;18.50;99.90
21625;DHT22;10974;51.034;3.744;2022-09-29T18:48:00;18.50;99.90
21625;DHT22;10974;51.034;3.744;2022-09-29T18:50:30;18.40;25.50
21625;DHT22;10974;51.034;3.744;2022-09-29T18:52:57;18.50;79.00
21625;DHT22;10974;51.034;3.744;2022-09-29T18:55:25;18.50;1.00
21625;DHT22;10974;51.034;3.744;2022-09-29T18:57:53;18.40;1.00
21625;DHT22;10974;51.034;3.744;2022-09-29T19:00:21;18.40;1.00
21625;DHT22;10974;51.034;3.744;2022-09-29T19:02:47;18.30;1.00
21625;DHT22;10974;51.034;3.744;2022-09-29T19:05:17;18.30;1.00
21625;DHT22;10974;51.034;3.744;2022-09-29T19:07:47;18.30;1.00
21625;DHT22;10974;51.034;3.744;2022-09-29T19:10:14;18.30;1.00
21625;DHT22;10974;51.034;3.744;2022-09-29T19:12:41;18.30;99.90
21625;DHT22;10974;51.034;3.744;2022-09-29T19:15:11;18.30;99.90
21625;DHT22;10974;51.034;3.744;2022-09-29T19:17:37;18.30;99.90
21625;DHT22;10974;51.034;3.744;2022-09-29T19:20:03;18.30;99.90
21625;DHT22;10974;51.034;3.744;2022-09-29T19:22:29;18.30;99.90
21625;DHT22;10974;51.034;3.744;2022-09-29T19:25:01;18.20;1.00
21625;DHT22;10974;51.034;3.744;2022-09-29T19:27:26;18.10;1.00
21625;DHT22;10974;51.034;3.744;2022-09-29T19:29:55;18.00;1.00
21625;DHT22;10974;51.034;3.744;2022-09-29T19:32:21;18.00;1.00
21625;DHT22;10974;51.034;3.744;2022-09-29T19:34:48;18.10;1.00
21625;DHT22;10974;51.034;3.744;2022-09-29T19:37:14;18.20;1.00
21625;DHT22;10974;51.034;3.744;2022-09-29T19:39:40;18.40;1.00
21625;DHT22;10974;51.034;3.744;2022-09-29T19:42:06;18.60;1.00
21625;DHT22;10974;51.034;3.744;2022-09-29T19:44:36;18.70;99.90
21625;DHT22;10974;51.034;3.744;2022-09-29T19:47:01;18.30;99.90
21625;DHT22;10974;51.034;3.744;2022-09-29T19:49:27;18.10;1.00
21625;DHT22;10974;51.034;3.744;2022-09-29T19:51:54;18.00;1.00
21625;DHT22;10974;51.034;3.744;2022-09-29T19:54:24;18.00;1.00
21625;DHT22;10974;51.034;3.744;2022-09-29T19:56:56;17.90;46.80
21625;DHT22;10974;51.034;3.744;2022-09-29T19:59:26;17.90;99.90
21625;DHT22;10974;51.034;3.744;2022-09-29T20:01:53;17.90;99.90
21625;DHT22;10974;51.034;3.744;2022-09-29T20:04:23;17.90;99.90
21625;DHT22;10974;51.034;3.744;2022-09-29T20:06:49;17.80;1.00
21625;DHT22;10974;51.034;3.744;2022-09-29T20:09:15;17.80;99.90
21625;DHT22;10974;51.034;3.744;2022-09-29T20:11:42;17.70;99.90
21625;DHT22;10974;51.034;3.744;2022-09-29T20:14:10;17.50;1.00
21625;DHT22;10974;51.034;3.744;2022-09-29T20:16:38;17.60;1.00
21625;DHT22;10974;51.034;3.744;2022-09-29T20:19:07;17.70;99.90
21625;DHT22;10974;51.034;3.744;2022-09-29T20:21:33;17.70;1.00
21625;DHT22;10974;51.034;3.744;2022-09-29T20:23:59;17.80;1.00
21625;DHT22;10974;51.034;3.744;2022-09-29T20:26:26;17.80;99.90
21625;DHT22;10974;51.034;3.744;2022-09-29T20:28:53;17.70;99.90
21625;DHT22;10974;51.034;3.744;2022-09-29T20:31:19;17.80;1.00
21625;DHT22;10974;51.034;3.744;2022-09-29T20:33:49;17.80;1.00
21625;DHT22;10974;51.034;3.744;2022-09-29T20:36:16;17.80;1.00
21625;DHT22;10974;51.034;3.744;2022-09-29T20:38:43;17.70;1.00
21625;DHT22;10974;51.034;3.744;2022-09-29T20:41:12;17.60;99.90
21625;DHT22;10974;51.034;3.744;2022-09-29T20:43:38;17.60;99.90
21625;DHT22;10974;51.034;3.744;2022-09-29T20:46:07;17.60;99.90
21625;DHT22;10974;51.034;3.744;2022-09-29T20:48:34;17.50;99.90
21625;DHT22;10974;51.034;3.744;2022-09-29T20:51:01;17.50;99.90
21625;DHT22;10974;51.034;3.744;2022-09-29T20:53:29;17.50;99.90
21625;DHT22;10974;51.034;3.744;2022-09-29T20:56:03;17.50;99.90
21625;DHT22;10974;51.034;3.744;2022-09-29T20:58:29;17.50;99.90
21625;DHT22;10974;51.034;3.744;2022-09-29T21:01:16;17.50;99.90
21625;DHT22;10974;51.034;3.744;2022-09-29T21:03:52;17.50;99.90
21625;DHT22;10974;51.034;3.744;2022-09-29T21:06:20;17.50;99.90
21625;DHT22;10974;51.034;3.744;2022-09-29T21:08:46;17.60;99.90
21625;DHT22;10974;51.034;3.744;2022-09-29T21:11:11;17.60;99.90
21625;DHT22;10974;51.034;3.744;2022-09-29T21:13:38;17.50;99.90
21625;DHT22;10974;51.034;3.744;2022-09-29T21:16:04;17.50;99.90
21625;DHT22;10974;51.034;3.744;2022-09-29T21:18:30;17.50;1.00
21625;DHT22;10974;51.034;3.744;2022-09-29T21:21:04;17.40;1.00
21625;DHT22;10974;51.034;3.744;2022-09-29T21:23:34;17.40;1.00
